createdAt,value
2022-10-12T00:00:19.940Z,11.93
2022-10-12T00:02:46.967Z,11.17
2022-10-12T00:05:13.830Z,11.88
2022-10-12T00:07:40.917Z,11.95
2022-10-12T00:10:08.376Z,10.77
2022-10-12T00:12:35.191Z,12.04
2022-10-12T00:15:02.112Z,11.60
2022-10-12T00:17:29.552Z,11.90
2022-10-12T00:19:56.359Z,10.72
2022-10-12T00:22:23.183Z,11.81
2022-10-12T00:24:50.096Z,10.73
2022-10-12T00:27:17.081Z,10.52
2022-10-12T00:29:43.838Z,11.67
2022-10-12T00:32:10.799Z,10.84
2022-10-12T00:34:37.689Z,11.65
2022-10-12T00:37:04.503Z,11.33
2022-10-12T00:39:31.337Z,10.38
2022-10-12T00:41:58.324Z,11.49
2022-10-12T00:44:43.842Z,11.43
2022-10-12T00:47:28.114Z,11.17
2022-10-12T00:50:20.804Z,10.55
2022-10-12T00:53:23.112Z,11.42
2022-10-12T00:55:59.216Z,11.37
2022-10-12T00:58:27.790Z,11.33
2022-10-12T01:00:54.580Z,11.36
2022-10-12T01:03:22.552Z,11.09
2022-10-12T01:05:49.520Z,11.28
2022-10-12T01:08:16.363Z,11.18
2022-10-12T01:10:43.295Z,10.22
2022-10-12T01:13:10.255Z,9.87
2022-10-12T01:15:43.233Z,10.65
2022-10-12T01:18:17.891Z,10.69
2022-10-12T01:21:13.337Z,10.71
2022-10-12T01:23:43.274Z,10.62
2022-10-12T01:26:34.904Z,10.55
2022-10-12T01:29:32.833Z,10.46
2022-10-12T01:32:13.439Z,10.39
2022-10-12T01:34:53.078Z,10.34
2022-10-12T01:37:29.584Z,9.98
2022-10-12T01:40:00.432Z,10.31
2022-10-12T01:42:32.549Z,9.97
2022-10-12T01:45:14.828Z,10.00
2022-10-12T01:47:45.280Z,10.18
2022-10-12T01:50:14.321Z,9.04
2022-10-12T01:52:55.905Z,8.85
2022-10-12T01:55:28.444Z,10.09
2022-10-12T01:58:28.903Z,10.06
2022-10-12T02:01:00.999Z,10.04
2022-10-12T02:03:43.507Z,10.01
2022-10-12T02:06:21.717Z,9.55
2022-10-12T02:09:14.494Z,9.92
2022-10-12T02:11:44.774Z,8.55
2022-10-12T02:14:16.546Z,9.81
2022-10-12T02:16:53.175Z,9.74
2022-10-12T02:19:25.817Z,9.55
2022-10-12T02:21:56.121Z,9.56
2022-10-12T02:24:24.034Z,9.25
2022-10-12T02:26:53.603Z,8.29
2022-10-12T02:29:28.865Z,9.63
2022-10-12T02:32:17.527Z,9.66
2022-10-12T02:35:10.579Z,9.70
2022-10-12T02:37:46.312Z,9.68
2022-10-12T02:40:21.860Z,8.41
2022-10-12T02:43:12.284Z,8.38
2022-10-12T02:45:43.844Z,8.33
2022-10-12T02:48:15.738Z,9.34
2022-10-12T02:50:43.804Z,9.41
2022-10-12T02:53:10.618Z,9.36
2022-10-12T02:55:52.105Z,8.83
2022-10-12T02:58:19.623Z,9.29
2022-10-12T03:00:46.874Z,7.99
2022-10-12T03:03:13.886Z,7.86
2022-10-12T03:05:40.755Z,9.07
2022-10-12T03:08:07.583Z,8.89
2022-10-12T03:10:34.457Z,7.51
2022-10-12T03:13:01.386Z,8.71
2022-10-12T03:15:28.210Z,8.18
2022-10-12T03:17:55.799Z,7.94
2022-10-12T03:20:22.704Z,8.50
2022-10-12T03:22:50.154Z,7.36
2022-10-12T03:25:17.366Z,8.08
2022-10-12T03:27:44.131Z,7.36
2022-10-12T03:30:11.520Z,7.20
2022-10-12T03:32:40.124Z,8.33
2022-10-12T03:35:08.308Z,8.37
2022-10-12T03:37:35.253Z,8.44
2022-10-12T03:40:02.452Z,7.38
2022-10-12T03:42:29.335Z,8.29
2022-10-12T03:44:56.101Z,7.21
2022-10-12T03:47:22.925Z,8.07
2022-10-12T03:49:49.778Z,8.41
2022-10-12T03:52:16.495Z,7.69
2022-10-12T03:54:43.472Z,7.40
2022-10-12T03:57:10.402Z,8.41
2022-10-12T03:59:37.293Z,8.40
2022-10-12T04:02:04.106Z,8.40
2022-10-12T04:04:31.535Z,7.34
2022-10-12T04:06:58.971Z,8.30
2022-10-12T04:09:26.235Z,8.25
2022-10-12T04:11:53.612Z,8.27
2022-10-12T04:14:20.884Z,8.12
2022-10-12T04:16:47.930Z,8.23
2022-10-12T04:19:17.800Z,7.72
2022-10-12T04:21:44.976Z,7.91
2022-10-12T04:24:11.982Z,7.28
2022-10-12T04:26:38.892Z,7.68
2022-10-12T04:29:05.800Z,6.61
2022-10-12T04:31:32.521Z,7.73
2022-10-12T04:33:59.669Z,7.38
2022-10-12T04:36:27.174Z,7.16
2022-10-12T04:38:59.928Z,6.33
2022-10-12T04:41:27.937Z,7.36
2022-10-12T04:43:55.123Z,6.74
2022-10-12T04:46:22.263Z,6.88
2022-10-12T04:48:49.178Z,6.14
2022-10-12T04:51:16.130Z,7.26
2022-10-12T04:53:42.959Z,6.77
2022-10-12T04:56:09.979Z,7.28
2022-10-12T04:58:36.841Z,7.30
2022-10-12T05:01:03.799Z,7.47
2022-10-12T05:03:31.606Z,6.92
2022-10-12T05:05:58.828Z,7.13
2022-10-12T05:08:25.798Z,7.33
2022-10-12T05:10:53.336Z,6.74
2022-10-12T05:13:20.656Z,8.05
2022-10-12T05:15:49.171Z,7.86
2022-10-12T05:18:17.121Z,7.82
2022-10-12T05:20:44.477Z,7.94
2022-10-12T05:23:13.151Z,8.19
2022-10-12T05:25:41.308Z,7.29
2022-10-12T05:28:08.576Z,8.27
2022-10-12T05:30:35.878Z,8.04
2022-10-12T05:33:03.749Z,7.98
2022-10-12T05:35:31.519Z,8.27
2022-10-12T05:37:59.234Z,8.06
2022-10-12T05:40:26.248Z,7.86
2022-10-12T05:42:52.987Z,6.69
2022-10-12T05:45:19.870Z,8.03
2022-10-12T05:47:46.629Z,7.97
2022-10-12T05:50:13.819Z,7.41
2022-10-12T05:52:40.965Z,6.92
2022-10-12T05:55:08.586Z,7.85
2022-10-12T05:57:36.616Z,8.05
2022-10-12T06:00:05.711Z,6.83
2022-10-12T06:02:37.323Z,8.31
2022-10-12T06:05:05.047Z,8.06
2022-10-12T06:07:32.889Z,7.71
2022-10-12T06:10:00.418Z,8.96
2022-10-12T06:12:28.054Z,9.22
2022-10-12T06:14:54.885Z,8.23
2022-10-12T06:17:21.670Z,8.88
2022-10-12T06:19:48.575Z,9.06
2022-10-12T06:22:15.446Z,9.87
2022-10-12T06:24:42.735Z,9.78
2022-10-12T06:27:10.455Z,10.03
2022-10-12T06:29:38.310Z,10.06
2022-10-12T06:32:05.863Z,10.08
2022-10-12T06:34:32.626Z,10.16
2022-10-12T06:37:01.828Z,9.20
2022-10-12T06:39:29.092Z,9.99
2022-10-12T06:41:55.983Z,10.46
2022-10-12T06:44:22.993Z,9.75
2022-10-12T06:46:50.552Z,10.50
2022-10-12T06:49:18.070Z,11.11
2022-10-12T06:51:45.253Z,11.26
2022-10-12T06:54:12.246Z,9.40
2022-10-12T06:56:39.684Z,11.62
2022-10-12T06:59:06.620Z,11.58
2022-10-12T07:01:35.259Z,11.72
2022-10-12T07:04:02.197Z,11.75
2022-10-12T07:06:30.118Z,11.61
2022-10-12T07:08:57.026Z,11.97
2022-10-12T07:11:24.025Z,12.12
2022-10-12T07:13:50.876Z,12.50
2022-10-12T07:16:17.756Z,12.50
2022-10-12T07:18:45.844Z,12.65
2022-10-12T07:21:13.126Z,12.73
2022-10-12T07:23:45.043Z,12.59
2022-10-12T07:26:12.969Z,12.93
2022-10-12T07:28:39.740Z,12.23
2022-10-12T07:31:10.115Z,12.20
2022-10-12T07:33:40.696Z,13.23
2022-10-12T07:36:20.867Z,13.09
2022-10-12T07:38:49.350Z,13.19
2022-10-12T07:41:16.257Z,13.22
2022-10-12T07:43:43.743Z,13.20
2022-10-12T07:46:10.795Z,12.99
2022-10-12T07:48:38.158Z,12.22
2022-10-12T07:51:07.707Z,13.03
2022-10-12T07:53:36.224Z,13.36
2022-10-12T07:56:07.781Z,13.47
2022-10-12T07:58:35.417Z,13.47
2022-10-12T08:01:07.124Z,13.55
2022-10-12T08:03:35.140Z,12.97
2022-10-12T08:06:14.267Z,12.65
2022-10-12T08:08:42.282Z,13.53
2022-10-12T08:11:10.098Z,13.65
2022-10-12T08:13:38.131Z,13.55
2022-10-12T08:16:08.139Z,13.73
2022-10-12T08:18:35.129Z,13.68
2022-10-12T08:21:05.527Z,12.56
2022-10-12T08:23:32.720Z,13.80
2022-10-12T08:26:00.914Z,13.71
2022-10-12T08:28:28.307Z,13.73
2022-10-12T08:30:55.410Z,13.30
2022-10-12T08:33:22.318Z,14.22
2022-10-12T08:35:49.782Z,13.57
2022-10-12T08:38:16.989Z,14.24
2022-10-12T08:40:53.521Z,13.53
2022-10-12T08:43:31.333Z,13.89
2022-10-12T08:46:00.977Z,13.08
2022-10-12T08:48:34.676Z,13.12
2022-10-12T08:51:05.490Z,14.04
2022-10-12T08:54:02.361Z,14.17
2022-10-12T08:56:48.421Z,14.65
2022-10-12T08:59:19.140Z,14.79
2022-10-12T09:01:52.391Z,14.89
2022-10-12T09:04:47.544Z,14.90
2022-10-12T09:07:14.427Z,14.87
2022-10-12T09:10:00.012Z,14.78
2022-10-12T09:13:04.350Z,14.64
2022-10-12T09:15:55.136Z,14.45
2022-10-12T09:18:37.064Z,13.77
2022-10-12T09:21:11.633Z,14.12
2022-10-12T09:23:44.999Z,14.24
2022-10-12T09:26:18.771Z,14.41
2022-10-12T09:28:51.350Z,14.04
2022-10-12T09:31:35.108Z,14.27
2022-10-12T09:34:05.795Z,14.27
2022-10-12T09:36:36.437Z,14.43
2022-10-12T09:39:06.252Z,13.82
2022-10-12T09:41:37.996Z,13.05
2022-10-12T09:44:06.873Z,13.03
2022-10-12T09:46:47.113Z,13.87
2022-10-12T09:49:13.978Z,14.25
2022-10-12T09:51:41.084Z,14.31
2022-10-12T09:54:18.306Z,13.22
2022-10-12T09:56:51.320Z,13.10
2022-10-12T09:59:43.449Z,13.97
2022-10-12T10:02:10.877Z,14.57
2022-10-12T10:04:39.232Z,14.40
2022-10-12T10:07:19.185Z,14.76
2022-10-12T10:09:47.081Z,14.20
2022-10-12T10:12:23.124Z,14.91
2022-10-12T10:14:51.819Z,14.53
2022-10-12T10:17:31.779Z,14.98
2022-10-12T10:20:04.274Z,15.05
2022-10-12T10:22:32.291Z,14.71
2022-10-12T10:25:01.058Z,15.02
2022-10-12T10:27:40.087Z,13.96
2022-10-12T10:30:40.880Z,14.04
2022-10-12T10:33:15.784Z,14.86
2022-10-12T10:35:55.454Z,14.70
2022-10-12T10:38:23.183Z,14.97
2022-10-12T10:40:52.196Z,13.83
2022-10-12T10:43:29.127Z,15.04
2022-10-12T10:46:00.216Z,14.78
2022-10-12T10:48:51.430Z,15.17
2022-10-12T10:51:18.851Z,15.21
2022-10-12T10:53:48.625Z,15.15
2022-10-12T10:56:25.860Z,15.15
2022-10-12T10:59:14.869Z,15.04
2022-10-12T11:02:03.479Z,14.76
2022-10-12T11:04:35.502Z,14.96
2022-10-12T11:07:18.103Z,14.93
2022-10-12T11:09:50.864Z,14.91
2022-10-12T11:12:31.035Z,14.95
2022-10-12T11:15:37.580Z,14.97
2022-10-12T11:18:19.108Z,14.98
2022-10-12T11:20:52.301Z,14.99
2022-10-12T11:23:56.730Z,15.04
2022-10-12T11:26:29.772Z,15.13
2022-10-12T11:28:59.564Z,14.69
2022-10-12T11:31:36.455Z,15.31
2022-10-12T11:34:13.280Z,15.31
2022-10-12T11:36:55.866Z,14.82
2022-10-12T11:39:42.806Z,14.05
2022-10-12T11:42:21.699Z,14.88
2022-10-12T11:44:50.138Z,15.23
2022-10-12T11:47:47.214Z,15.24
2022-10-12T11:50:37.577Z,15.26
2022-10-12T11:53:11.974Z,14.16
2022-10-12T11:55:59.833Z,14.15
2022-10-12T11:58:48.898Z,15.25
2022-10-12T12:01:38.035Z,14.15
2022-10-12T12:04:29.250Z,14.80
2022-10-12T12:06:59.118Z,13.95
2022-10-12T12:09:40.381Z,15.06
2022-10-12T12:12:12.966Z,15.03
2022-10-12T12:14:46.768Z,15.03
2022-10-12T12:17:14.111Z,15.06
2022-10-12T12:19:43.118Z,13.90
2022-10-12T12:22:15.168Z,14.25
2022-10-12T12:25:05.822Z,14.48
2022-10-12T12:27:48.209Z,15.28
2022-10-12T12:30:15.021Z,15.37
2022-10-12T12:32:47.462Z,15.41
2022-10-12T12:35:23.114Z,15.47
2022-10-12T12:38:01.570Z,15.08
2022-10-12T12:40:29.323Z,15.44
2022-10-12T12:43:38.154Z,15.41
2022-10-12T12:46:12.981Z,15.35
2022-10-12T12:48:40.107Z,15.34
2022-10-12T12:51:13.180Z,15.09
2022-10-12T12:53:46.265Z,15.35
2022-10-12T12:56:21.800Z,15.35
2022-10-12T12:59:25.943Z,15.33
2022-10-12T13:02:30.813Z,15.33
2022-10-12T13:05:22.737Z,14.39
2022-10-12T13:08:16.186Z,15.22
2022-10-12T13:11:25.244Z,15.16
2022-10-12T13:13:56.112Z,15.13
2022-10-12T13:17:30.318Z,14.98
2022-10-12T13:19:25.474Z,15.08
2022-10-12T13:21:55.239Z,14.08
2022-10-12T13:24:30.024Z,15.04
2022-10-12T13:27:20.733Z,14.90
2022-10-12T13:30:02.992Z,13.94
2022-10-12T13:32:54.202Z,14.79
2022-10-12T13:35:21.843Z,13.93
2022-10-12T13:38:00.815Z,14.92
2022-10-12T13:40:35.819Z,15.06
2022-10-12T13:43:43.954Z,15.03
2022-10-12T13:46:14.680Z,13.68
2022-10-12T13:48:59.285Z,14.98
2022-10-12T13:51:30.522Z,14.97
2022-10-12T13:53:58.028Z,14.90
2022-10-12T13:56:30.043Z,14.91
2022-10-12T13:59:00.318Z,13.57
2022-10-12T14:01:27.631Z,13.93
2022-10-12T14:04:05.557Z,13.75
2022-10-12T14:06:38.259Z,14.86
2022-10-12T14:09:12.827Z,14.85
2022-10-12T14:11:41.121Z,13.86
2022-10-12T14:14:25.111Z,14.81
2022-10-12T14:16:52.275Z,14.84
2022-10-12T14:19:21.921Z,13.77
2022-10-12T14:21:49.778Z,14.78
2022-10-12T14:24:19.549Z,14.70
2022-10-12T14:26:55.205Z,13.97
2022-10-12T14:29:31.478Z,14.83
2022-10-12T14:32:01.599Z,14.34
2022-10-12T14:34:40.917Z,14.81
2022-10-12T14:37:16.963Z,14.79
2022-10-12T14:39:47.196Z,14.78
2022-10-12T14:42:29.532Z,14.75
2022-10-12T14:44:56.785Z,14.45
2022-10-12T14:47:37.490Z,14.45
2022-10-12T14:50:08.498Z,14.60
2022-10-12T14:52:44.056Z,13.42
2022-10-12T14:55:23.357Z,13.41
2022-10-12T14:57:51.033Z,14.14
2022-10-12T15:00:37.690Z,14.58
2022-10-12T15:03:05.111Z,14.39
2022-10-12T15:05:34.033Z,14.38
2022-10-12T15:08:01.346Z,14.04
2022-10-12T15:10:28.595Z,14.53
2022-10-12T15:12:55.534Z,14.42
2022-10-12T15:15:34.814Z,13.55
2022-10-12T15:18:02.544Z,14.47
2022-10-12T15:20:31.365Z,14.46
2022-10-12T15:22:59.540Z,14.45
2022-10-12T15:25:35.421Z,14.47
2022-10-12T15:28:04.023Z,13.89
2022-10-12T15:30:32.886Z,14.46
2022-10-12T15:32:59.807Z,14.43
2022-10-12T15:35:28.981Z,14.38
2022-10-12T15:37:56.359Z,14.30
2022-10-12T15:40:24.143Z,14.15
2022-10-12T15:42:51.132Z,13.36
2022-10-12T15:45:23.731Z,14.30
2022-10-12T15:47:53.206Z,14.02
2022-10-12T15:50:25.427Z,12.02
2022-10-12T15:52:53.855Z,12.87
2022-10-12T15:55:25.174Z,14.21
2022-10-12T15:57:52.455Z,13.96
2022-10-12T16:00:22.988Z,13.15
2022-10-12T16:02:50.586Z,12.86
2022-10-12T16:05:22.454Z,13.94
2022-10-12T16:07:50.107Z,13.76
2022-10-12T16:10:20.311Z,13.70
2022-10-12T16:12:49.875Z,13.60
2022-10-12T16:15:23.928Z,13.47
2022-10-12T16:17:51.522Z,13.13
2022-10-12T16:20:19.177Z,13.26
2022-10-12T16:22:46.519Z,13.24
2022-10-12T16:25:17.250Z,12.96
2022-10-12T16:27:45.672Z,12.01
2022-10-12T16:30:13.383Z,13.05
2022-10-12T16:32:40.818Z,12.03
2022-10-12T16:35:08.976Z,12.88
2022-10-12T16:37:36.039Z,11.57
2022-10-12T16:40:05.080Z,12.55
2022-10-12T16:42:32.648Z,11.20
2022-10-12T16:44:59.881Z,10.98
2022-10-12T16:47:27.419Z,11.15
2022-10-12T16:49:54.709Z,11.86
2022-10-12T16:52:30.021Z,11.78
2022-10-12T16:54:59.447Z,11.49
2022-10-12T16:57:26.584Z,11.64
2022-10-12T16:59:53.626Z,11.46
2022-10-12T17:02:20.779Z,11.70
2022-10-12T17:04:48.087Z,11.58
2022-10-12T17:07:15.790Z,11.62
2022-10-12T17:09:42.919Z,11.30
2022-10-12T17:12:10.179Z,11.49
2022-10-12T17:14:37.461Z,10.27
2022-10-12T17:17:06.164Z,10.43
2022-10-12T17:19:37.356Z,11.18
2022-10-12T17:22:06.511Z,11.36
2022-10-12T17:24:35.741Z,11.15
2022-10-12T17:27:05.129Z,9.91
2022-10-12T17:29:33.516Z,10.89
2022-10-12T17:32:00.413Z,10.99
2022-10-12T17:34:37.084Z,9.80
2022-10-12T17:37:06.245Z,9.82
2022-10-12T17:39:37.206Z,10.51
2022-10-12T17:42:05.216Z,10.47
2022-10-12T17:44:32.805Z,10.87
2022-10-12T17:46:59.764Z,10.62
2022-10-12T17:49:28.154Z,10.79
2022-10-12T17:51:54.908Z,10.26
2022-10-12T17:54:25.280Z,9.56
2022-10-12T17:56:53.542Z,10.36
2022-10-12T17:59:21.414Z,10.59
2022-10-12T18:01:50.132Z,10.59
2022-10-12T18:04:19.288Z,10.55
2022-10-12T18:06:47.481Z,9.34
2022-10-12T18:09:14.935Z,10.40
2022-10-12T18:11:42.060Z,8.83
2022-10-12T18:14:10.479Z,10.22
2022-10-12T18:16:38.207Z,8.85
2022-10-12T18:19:06.609Z,10.13
2022-10-12T18:21:34.092Z,9.84
2022-10-12T18:24:02.913Z,10.02
2022-10-12T18:26:30.584Z,9.94
2022-10-12T18:29:01.932Z,8.92
2022-10-12T18:31:29.912Z,9.40
2022-10-12T18:33:59.818Z,8.93
2022-10-12T18:36:27.223Z,9.98
2022-10-12T18:38:55.102Z,9.92
2022-10-12T18:41:25.620Z,9.11
2022-10-12T18:44:01.059Z,9.70
2022-10-12T18:46:30.182Z,10.02
2022-10-12T18:48:57.243Z,8.79
2022-10-12T18:51:29.652Z,10.07
2022-10-12T18:53:57.389Z,10.08
2022-10-12T18:56:24.294Z,9.52
2022-10-12T18:58:52.850Z,9.44
2022-10-12T19:01:24.926Z,10.02
2022-10-12T19:03:54.665Z,10.08
2022-10-12T19:06:24.819Z,10.07
2022-10-12T19:08:51.963Z,10.17
2022-10-12T19:11:21.589Z,10.18
2022-10-12T19:13:58.055Z,8.84
2022-10-12T19:16:26.128Z,9.42
2022-10-12T19:19:05.256Z,9.07
2022-10-12T19:21:32.234Z,9.14
2022-10-12T19:24:03.616Z,9.16
2022-10-12T19:26:30.884Z,10.18
2022-10-12T19:28:58.506Z,8.87
2022-10-12T19:31:29.355Z,10.16
2022-10-12T19:33:58.582Z,9.76
2022-10-12T19:36:26.146Z,10.19
2022-10-12T19:38:56.122Z,10.03
2022-10-12T19:41:24.518Z,10.26
2022-10-12T19:43:53.254Z,10.27
2022-10-12T19:46:20.878Z,10.38
2022-10-12T19:48:50.141Z,9.41
2022-10-12T19:51:20.028Z,9.19
2022-10-12T19:53:47.880Z,10.45
2022-10-12T19:56:17.807Z,10.37
2022-10-12T19:58:45.714Z,9.80
2022-10-12T20:01:16.312Z,9.43
2022-10-12T20:03:47.965Z,10.72
2022-10-12T20:06:21.199Z,10.73
2022-10-12T20:08:49.131Z,10.79
2022-10-12T20:11:21.528Z,10.81
2022-10-12T20:13:51.749Z,10.24
2022-10-12T20:16:20.798Z,9.57
2022-10-12T20:18:48.307Z,10.79
2022-10-12T20:21:20.608Z,10.55
2022-10-12T20:23:48.209Z,10.73
2022-10-12T20:26:19.607Z,10.49
2022-10-12T20:28:47.617Z,9.99
2022-10-12T20:31:14.932Z,10.65
2022-10-12T20:33:41.927Z,10.55
2022-10-12T20:36:11.839Z,9.19
2022-10-12T20:38:39.431Z,10.14
2022-10-12T20:41:09.155Z,10.43
2022-10-12T20:43:39.683Z,10.44
2022-10-12T20:46:10.420Z,9.33
2022-10-12T20:48:40.043Z,9.43
2022-10-12T20:51:17.869Z,10.18
2022-10-12T20:53:44.831Z,9.95
2022-10-12T20:56:11.650Z,9.96
2022-10-12T20:58:38.910Z,9.94
2022-10-12T21:01:07.991Z,9.88
2022-10-12T21:03:35.880Z,8.48
2022-10-12T21:06:08.470Z,10.04
2022-10-12T21:08:36.031Z,10.15
2022-10-12T21:11:03.819Z,9.15
2022-10-12T21:13:36.615Z,8.86
2022-10-12T21:16:03.584Z,10.03
2022-10-12T21:18:35.337Z,8.83
2022-10-12T21:21:16.171Z,8.74
2022-10-12T21:23:45.707Z,8.77
2022-10-12T21:26:17.760Z,10.18
2022-10-12T21:28:45.461Z,10.01
2022-10-12T21:31:14.049Z,10.27
2022-10-12T21:33:41.378Z,10.10
2022-10-12T21:36:14.763Z,10.06
2022-10-12T21:38:42.593Z,9.07
2022-10-12T21:41:11.192Z,8.78
2022-10-12T21:43:40.354Z,10.16
2022-10-12T21:46:10.048Z,8.88
2022-10-12T21:48:37.041Z,8.95
2022-10-12T21:51:04.905Z,10.07
2022-10-12T21:53:33.481Z,10.17
2022-10-12T21:56:05.652Z,8.99
2022-10-12T21:58:32.765Z,8.96
2022-10-12T22:01:30.017Z,10.25
2022-10-12T22:03:59.236Z,10.22
2022-10-12T22:06:28.260Z,9.11
2022-10-12T22:09:02.300Z,9.05
2022-10-12T22:11:47.807Z,10.00
2022-10-12T22:14:17.557Z,10.11
2022-10-12T22:16:44.429Z,9.81
2022-10-12T22:19:15.240Z,10.12
2022-10-12T22:21:42.351Z,9.43
2022-10-12T22:24:09.229Z,10.07
2022-10-12T22:26:36.468Z,9.69
2022-10-12T22:29:06.247Z,8.86
2022-10-12T22:31:33.595Z,9.25
2022-10-12T22:34:00.521Z,9.51
2022-10-12T22:36:31.130Z,10.07
2022-10-12T22:38:58.923Z,8.97
2022-10-12T22:41:25.928Z,9.47
2022-10-12T22:43:55.254Z,9.59
2022-10-12T22:46:24.098Z,9.06
2022-10-12T22:48:51.559Z,9.49
2022-10-12T22:51:29.979Z,8.91
2022-10-12T22:53:57.105Z,9.89
2022-10-12T22:56:24.071Z,9.84
2022-10-12T22:58:56.532Z,9.82
2022-10-12T23:01:24.084Z,8.67
2022-10-12T23:03:51.204Z,9.51
2022-10-12T23:06:18.928Z,9.71
2022-10-12T23:08:46.738Z,8.35
2022-10-12T23:11:20.308Z,9.42
2022-10-12T23:13:48.057Z,9.32
2022-10-12T23:16:21.623Z,7.88
2022-10-12T23:18:55.492Z,8.25
2022-10-12T23:21:26.009Z,8.13
2022-10-12T23:23:53.490Z,8.74
2022-10-12T23:26:25.165Z,8.76
2022-10-12T23:28:53.735Z,8.75
2022-10-12T23:31:23.645Z,8.90
2022-10-12T23:34:04.871Z,8.18
2022-10-12T23:36:34.467Z,8.14
2022-10-12T23:39:02.063Z,9.39
2022-10-12T23:41:29.072Z,8.37
2022-10-12T23:43:56.060Z,9.39
2022-10-12T23:46:23.200Z,8.55
2022-10-12T23:48:52.086Z,9.57
2022-10-12T23:51:18.999Z,9.33
2022-10-12T23:53:46.010Z,9.20
2022-10-12T23:56:31.316Z,9.61
2022-10-12T23:59:01.837Z,8.54
